sensor_id;sensor_type;location;lat;lon;timestamp;P1;durP1;ratioP1;P2;durP2;ratioP2
75087;SDS011;63664;44.868;40.600;2023-05-29T00:01:31;4.22;;;2.55;;
75087;SDS011;63664;44.868;40.600;2023-05-29T00:04:00;7.35;;;2.90;;
75087;SDS011;63664;44.868;40.600;2023-05-29T00:06:28;10.27;;;3.10;;
75087;SDS011;63664;44.868;40.600;2023-05-29T00:08:57;6.47;;;2.88;;
75087;SDS011;63664;44.868;40.600;2023-05-29T00:11:23;6.43;;;3.35;;
75087;SDS011;63664;44.868;40.600;2023-05-29T00:13:49;8.32;;;2.75;;
75087;SDS011;63664;44.868;40.600;2023-05-29T00:16:16;6.50;;;3.35;;
75087;SDS011;63664;44.868;40.600;2023-05-29T00:18:43;7.55;;;3.20;;
75087;SDS011;63664;44.868;40.600;2023-05-29T00:21:13;7.88;;;2.97;;
75087;SDS011;63664;44.868;40.600;2023-05-29T00:23:42;5.10;;;2.83;;
75087;SDS011;63664;44.868;40.600;2023-05-29T00:26:09;3.38;;;2.42;;
75087;SDS011;63664;44.868;40.600;2023-05-29T00:28:37;6.88;;;2.92;;
75087;SDS011;63664;44.868;40.600;2023-05-29T00:31:03;7.88;;;3.15;;
75087;SDS011;63664;44.868;40.600;2023-05-29T00:33:30;6.00;;;2.60;;
75087;SDS011;63664;44.868;40.600;2023-05-29T00:35:56;5.47;;;2.53;;
75087;SDS011;63664;44.868;40.600;2023-05-29T00:38:26;6.32;;;2.97;;
75087;SDS011;63664;44.868;40.600;2023-05-29T00:40:52;7.68;;;2.92;;
75087;SDS011;63664;44.868;40.600;2023-05-29T00:43:18;4.53;;;2.80;;
75087;SDS011;63664;44.868;40.600;2023-05-29T00:45:44;8.35;;;2.83;;
75087;SDS011;63664;44.868;40.600;2023-05-29T00:48:11;4.65;;;2.70;;
75087;SDS011;63664;44.868;40.600;2023-05-29T00:55:56;10.50;;;3.00;;
75087;SDS011;63664;44.868;40.600;2023-05-29T00:58:26;8.68;;;3.20;;
75087;SDS011;63664;44.868;40.600;2023-05-29T01:00:53;5.68;;;2.35;;
75087;SDS011;63664;44.868;40.600;2023-05-29T01:03:20;6.10;;;2.65;;
75087;SDS011;63664;44.868;40.600;2023-05-29T01:05:48;5.03;;;2.40;;
75087;SDS011;63664;44.868;40.600;2023-05-29T01:08:17;3.30;;;2.42;;
75087;SDS011;63664;44.868;40.600;2023-05-29T01:10:44;4.57;;;2.80;;
75087;SDS011;63664;44.868;40.600;2023-05-29T01:13:19;7.13;;;2.60;;
75087;SDS011;63664;44.868;40.600;2023-05-29T01:15:58;8.48;;;3.30;;
75087;SDS011;63664;44.868;40.600;2023-05-29T01:27:01;6.43;;;2.75;;
75087;SDS011;63664;44.868;40.600;2023-05-29T01:29:32;6.75;;;3.05;;
75087;SDS011;63664;44.868;40.600;2023-05-29T01:32:05;3.78;;;2.30;;
75087;SDS011;63664;44.868;40.600;2023-05-29T01:34:32;7.60;;;2.80;;
75087;SDS011;63664;44.868;40.600;2023-05-29T01:36:58;3.47;;;2.47;;
75087;SDS011;63664;44.868;40.600;2023-05-29T01:39:29;7.43;;;2.70;;
75087;SDS011;63664;44.868;40.600;2023-05-29T01:41:57;4.32;;;2.80;;
75087;SDS011;63664;44.868;40.600;2023-05-29T01:46:54;5.60;;;3.08;;
75087;SDS011;63664;44.868;40.600;2023-05-29T01:49:22;5.03;;;2.80;;
75087;SDS011;63664;44.868;40.600;2023-05-29T01:51:50;5.13;;;3.10;;
75087;SDS011;63664;44.868;40.600;2023-05-29T01:54:17;6.70;;;3.10;;
75087;SDS011;63664;44.868;40.600;2023-05-29T01:56:43;6.43;;;3.22;;
75087;SDS011;63664;44.868;40.600;2023-05-29T01:59:11;5.68;;;2.63;;
75087;SDS011;63664;44.868;40.600;2023-05-29T02:04:10;9.63;;;3.15;;
75087;SDS011;63664;44.868;40.600;2023-05-29T02:06:38;3.83;;;2.90;;
75087;SDS011;63664;44.868;40.600;2023-05-29T02:09:05;6.07;;;2.70;;
75087;SDS011;63664;44.868;40.600;2023-05-29T02:11:32;5.10;;;2.63;;
75087;SDS011;63664;44.868;40.600;2023-05-29T02:13:58;12.43;;;2.75;;
75087;SDS011;63664;44.868;40.600;2023-05-29T02:16:28;5.00;;;2.67;;
75087;SDS011;63664;44.868;40.600;2023-05-29T02:19:01;5.80;;;3.08;;
75087;SDS011;63664;44.868;40.600;2023-05-29T02:21:30;5.10;;;3.03;;
75087;SDS011;63664;44.868;40.600;2023-05-29T02:23:57;9.05;;;3.55;;
75087;SDS011;63664;44.868;40.600;2023-05-29T02:26:26;8.55;;;3.25;;
75087;SDS011;63664;44.868;40.600;2023-05-29T02:28:54;4.97;;;2.63;;
75087;SDS011;63664;44.868;40.600;2023-05-29T02:31:21;6.32;;;3.17;;
75087;SDS011;63664;44.868;40.600;2023-05-29T02:33:47;5.03;;;3.28;;
75087;SDS011;63664;44.868;40.600;2023-05-29T02:36:16;8.90;;;3.38;;
75087;SDS011;63664;44.868;40.600;2023-05-29T02:38:42;3.83;;;2.53;;
75087;SDS011;63664;44.868;40.600;2023-05-29T02:41:08;5.13;;;3.25;;
75087;SDS011;63664;44.868;40.600;2023-05-29T02:43:35;10.52;;;3.30;;
75087;SDS011;63664;44.868;40.600;2023-05-29T02:46:04;6.30;;;3.08;;
75087;SDS011;63664;44.868;40.600;2023-05-29T02:48:32;8.30;;;3.22;;
75087;SDS011;63664;44.868;40.600;2023-05-29T02:50:59;8.82;;;3.47;;
75087;SDS011;63664;44.868;40.600;2023-05-29T02:53:25;6.85;;;2.95;;
75087;SDS011;63664;44.868;40.600;2023-05-29T02:55:51;6.75;;;3.05;;
75087;SDS011;63664;44.868;40.600;2023-05-29T02:58:17;4.68;;;3.25;;
75087;SDS011;63664;44.868;40.600;2023-05-29T03:00:44;8.07;;;3.65;;
75087;SDS011;63664;44.868;40.600;2023-05-29T03:03:10;9.80;;;3.22;;
75087;SDS011;63664;44.868;40.600;2023-05-29T03:05:38;13.20;;;3.88;;
75087;SDS011;63664;44.868;40.600;2023-05-29T03:08:04;5.28;;;3.10;;
75087;SDS011;63664;44.868;40.600;2023-05-29T03:10:33;7.75;;;3.30;;
75087;SDS011;63664;44.868;40.600;2023-05-29T03:13:02;6.28;;;3.28;;
75087;SDS011;63664;44.868;40.600;2023-05-29T03:15:35;5.80;;;3.10;;
75087;SDS011;63664;44.868;40.600;2023-05-29T03:18:01;8.93;;;3.35;;
75087;SDS011;63664;44.868;40.600;2023-05-29T03:20:30;7.38;;;3.65;;
75087;SDS011;63664;44.868;40.600;2023-05-29T03:23:01;8.23;;;3.15;;
75087;SDS011;63664;44.868;40.600;2023-05-29T03:25:28;9.57;;;3.70;;
75087;SDS011;63664;44.868;40.600;2023-05-29T03:27:55;7.63;;;3.10;;
75087;SDS011;63664;44.868;40.600;2023-05-29T03:30:22;7.07;;;3.13;;
75087;SDS011;63664;44.868;40.600;2023-05-29T03:32:50;9.63;;;3.33;;
75087;SDS011;63664;44.868;40.600;2023-05-29T03:35:19;8.35;;;3.50;;
75087;SDS011;63664;44.868;40.600;2023-05-29T03:37:48;8.48;;;3.08;;
75087;SDS011;63664;44.868;40.600;2023-05-29T03:40:14;9.13;;;3.35;;
75087;SDS011;63664;44.868;40.600;2023-05-29T03:42:46;6.15;;;3.60;;
75087;SDS011;63664;44.868;40.600;2023-05-29T03:45:16;6.18;;;3.38;;
75087;SDS011;63664;44.868;40.600;2023-05-29T03:47:44;9.15;;;3.63;;
75087;SDS011;63664;44.868;40.600;2023-05-29T03:50:13;9.48;;;3.35;;
75087;SDS011;63664;44.868;40.600;2023-05-29T03:52:42;6.03;;;3.35;;
75087;SDS011;63664;44.868;40.600;2023-05-29T03:55:09;9.20;;;4.55;;
75087;SDS011;63664;44.868;40.600;2023-05-29T03:57:41;8.73;;;3.47;;
75087;SDS011;63664;44.868;40.600;2023-05-29T04:00:10;8.70;;;3.78;;
75087;SDS011;63664;44.868;40.600;2023-05-29T04:02:40;11.48;;;4.00;;
75087;SDS011;63664;44.868;40.600;2023-05-29T04:05:09;10.88;;;3.90;;
75087;SDS011;63664;44.868;40.600;2023-05-29T04:07:43;7.72;;;4.40;;
75087;SDS011;63664;44.868;40.600;2023-05-29T04:10:10;5.97;;;4.18;;
75087;SDS011;63664;44.868;40.600;2023-05-29T04:12:41;8.73;;;3.88;;
75087;SDS011;63664;44.868;40.600;2023-05-29T04:15:08;10.07;;;4.15;;
75087;SDS011;63664;44.868;40.600;2023-05-29T04:17:40;8.43;;;4.00;;
75087;SDS011;63664;44.868;40.600;2023-05-29T04:20:09;8.75;;;3.90;;
75087;SDS011;63664;44.868;40.600;2023-05-29T04:22:37;9.95;;;4.55;;
75087;SDS011;63664;44.868;40.600;2023-05-29T04:25:06;14.23;;;4.75;;
75087;SDS011;63664;44.868;40.600;2023-05-29T04:27:35;7.38;;;4.25;;
75087;SDS011;63664;44.868;40.600;2023-05-29T04:30:05;9.15;;;4.15;;
75087;SDS011;63664;44.868;40.600;2023-05-29T04:32:37;8.27;;;3.55;;
75087;SDS011;63664;44.868;40.600;2023-05-29T04:35:08;7.90;;;3.58;;
75087;SDS011;63664;44.868;40.600;2023-05-29T04:37:42;8.63;;;4.10;;
75087;SDS011;63664;44.868;40.600;2023-05-29T04:40:10;10.55;;;4.15;;
75087;SDS011;63664;44.868;40.600;2023-05-29T04:42:37;7.15;;;3.78;;
75087;SDS011;63664;44.868;40.600;2023-05-29T04:45:07;7.70;;;3.65;;
75087;SDS011;63664;44.868;40.600;2023-05-29T04:47:37;5.28;;;3.60;;
75087;SDS011;63664;44.868;40.600;2023-05-29T04:50:17;6.32;;;3.75;;
75087;SDS011;63664;44.868;40.600;2023-05-29T04:52:43;7.07;;;3.40;;
75087;SDS011;63664;44.868;40.600;2023-05-29T04:55:10;6.47;;;3.70;;
75087;SDS011;63664;44.868;40.600;2023-05-29T04:57:42;6.47;;;3.22;;
75087;SDS011;63664;44.868;40.600;2023-05-29T05:00:11;6.28;;;3.55;;
75087;SDS011;63664;44.868;40.600;2023-05-29T05:02:42;5.57;;;2.92;;
75087;SDS011;63664;44.868;40.600;2023-05-29T05:05:12;6.20;;;3.55;;
75087;SDS011;63664;44.868;40.600;2023-05-29T05:07:39;5.40;;;3.38;;
75087;SDS011;63664;44.868;40.600;2023-05-29T05:10:06;6.07;;;3.85;;
75087;SDS011;63664;44.868;40.600;2023-05-29T05:12:33;4.75;;;3.22;;
75087;SDS011;63664;44.868;40.600;2023-05-29T05:15:01;8.38;;;4.05;;
75087;SDS011;63664;44.868;40.600;2023-05-29T05:17:29;7.40;;;3.83;;
75087;SDS011;63664;44.868;40.600;2023-05-29T05:19:59;6.32;;;3.65;;
75087;SDS011;63664;44.868;40.600;2023-05-29T05:22:28;7.40;;;4.00;;
75087;SDS011;63664;44.868;40.600;2023-05-29T05:24:56;8.68;;;3.40;;
75087;SDS011;63664;44.868;40.600;2023-05-29T05:29:54;6.45;;;3.47;;
75087;SDS011;63664;44.868;40.600;2023-05-29T05:32:20;5.65;;;3.80;;
75087;SDS011;63664;44.868;40.600;2023-05-29T05:34:55;8.82;;;4.05;;
75087;SDS011;63664;44.868;40.600;2023-05-29T05:37:22;7.57;;;3.83;;
75087;SDS011;63664;44.868;40.600;2023-05-29T05:39:53;7.32;;;3.60;;
75087;SDS011;63664;44.868;40.600;2023-05-29T05:42:30;5.70;;;3.42;;
75087;SDS011;63664;44.868;40.600;2023-05-29T05:45:03;7.82;;;3.30;;
75087;SDS011;63664;44.868;40.600;2023-05-29T08:12:03;5.18;;;3.00;;
75087;SDS011;63664;44.868;40.600;2023-05-29T08:14:31;6.35;;;3.22;;
75087;SDS011;63664;44.868;40.600;2023-05-29T08:17:01;5.28;;;3.00;;
75087;SDS011;63664;44.868;40.600;2023-05-29T08:21:57;6.68;;;3.42;;
75087;SDS011;63664;44.868;40.600;2023-05-29T08:24:23;11.30;;;3.90;;
75087;SDS011;63664;44.868;40.600;2023-05-29T08:26:49;7.40;;;3.42;;
75087;SDS011;63664;44.868;40.600;2023-05-29T08:29:18;5.47;;;3.55;;
75087;SDS011;63664;44.868;40.600;2023-05-29T08:31:47;7.97;;;3.80;;
75087;SDS011;63664;44.868;40.600;2023-05-29T08:34:14;6.32;;;3.55;;
75087;SDS011;63664;44.868;40.600;2023-05-29T08:36:40;6.85;;;3.20;;
75087;SDS011;63664;44.868;40.600;2023-05-29T08:39:08;5.13;;;3.22;;
75087;SDS011;63664;44.868;40.600;2023-05-29T08:44:29;7.32;;;3.50;;
75087;SDS011;63664;44.868;40.600;2023-05-29T08:47:02;8.68;;;4.57;;
75087;SDS011;63664;44.868;40.600;2023-05-29T08:49:29;7.32;;;4.50;;
75087;SDS011;63664;44.868;40.600;2023-05-29T08:52:08;6.38;;;3.60;;
75087;SDS011;63664;44.868;40.600;2023-05-29T08:54:42;7.55;;;3.20;;
75087;SDS011;63664;44.868;40.600;2023-05-29T08:57:10;8.07;;;3.55;;
75087;SDS011;63664;44.868;40.600;2023-05-29T08:59:39;5.30;;;3.10;;
75087;SDS011;63664;44.868;40.600;2023-05-29T09:02:11;6.70;;;3.72;;
75087;SDS011;63664;44.868;40.600;2023-05-29T09:04:43;6.32;;;3.70;;
75087;SDS011;63664;44.868;40.600;2023-05-29T09:07:19;6.72;;;3.80;;
75087;SDS011;63664;44.868;40.600;2023-05-29T09:09:46;10.50;;;4.00;;
75087;SDS011;63664;44.868;40.600;2023-05-29T09:12:15;5.13;;;3.45;;
75087;SDS011;63664;44.868;40.600;2023-05-29T09:14:49;4.55;;;3.50;;
75087;SDS011;63664;44.868;40.600;2023-05-29T09:17:18;6.95;;;3.92;;
75087;SDS011;63664;44.868;40.600;2023-05-29T09:19:45;6.78;;;3.80;;
75087;SDS011;63664;44.868;40.600;2023-05-29T09:22:16;5.70;;;3.70;;
75087;SDS011;63664;44.868;40.600;2023-05-29T09:24:47;9.40;;;4.05;;
75087;SDS011;63664;44.868;40.600;2023-05-29T09:27:16;5.43;;;3.60;;
75087;SDS011;63664;44.868;40.600;2023-05-29T09:29:44;6.13;;;4.03;;
75087;SDS011;63664;44.868;40.600;2023-05-29T09:32:18;8.02;;;3.95;;
75087;SDS011;63664;44.868;40.600;2023-05-29T09:34:47;6.30;;;4.25;;
75087;SDS011;63664;44.868;40.600;2023-05-29T09:37:13;7.30;;;4.30;;
75087;SDS011;63664;44.868;40.600;2023-05-29T09:39:48;6.68;;;3.85;;
75087;SDS011;63664;44.868;40.600;2023-05-29T09:42:14;8.27;;;4.35;;
75087;SDS011;63664;44.868;40.600;2023-05-29T09:44:44;8.80;;;4.20;;
75087;SDS011;63664;44.868;40.600;2023-05-29T09:47:17;7.88;;;4.47;;
75087;SDS011;63664;44.868;40.600;2023-05-29T09:49:46;8.55;;;4.47;;
75087;SDS011;63664;44.868;40.600;2023-05-29T09:52:20;7.85;;;4.10;;
75087;SDS011;63664;44.868;40.600;2023-05-29T09:54:50;8.65;;;4.13;;
75087;SDS011;63664;44.868;40.600;2023-05-29T09:57:19;7.82;;;4.75;;
75087;SDS011;63664;44.868;40.600;2023-05-29T09:59:49;10.70;;;5.05;;
75087;SDS011;63664;44.868;40.600;2023-05-29T10:02:21;9.20;;;4.32;;
75087;SDS011;63664;44.868;40.600;2023-05-29T10:04:48;6.50;;;4.45;;
75087;SDS011;63664;44.868;40.600;2023-05-29T10:07:26;7.50;;;4.35;;
75087;SDS011;63664;44.868;40.600;2023-05-29T10:10:00;6.75;;;4.63;;
75087;SDS011;63664;44.868;40.600;2023-05-29T10:12:36;6.90;;;4.32;;
75087;SDS011;63664;44.868;40.600;2023-05-29T10:15:06;8.38;;;4.30;;
75087;SDS011;63664;44.868;40.600;2023-05-29T10:17:42;7.22;;;4.57;;
75087;SDS011;63664;44.868;40.600;2023-05-29T10:20:26;10.50;;;4.47;;
75087;SDS011;63664;44.868;40.600;2023-05-29T10:22:54;7.80;;;4.38;;
75087;SDS011;63664;44.868;40.600;2023-05-29T10:25:27;8.35;;;4.57;;
75087;SDS011;63664;44.868;40.600;2023-05-29T10:30:35;6.72;;;4.68;;
75087;SDS011;63664;44.868;40.600;2023-05-29T10:33:13;8.88;;;4.88;;
75087;SDS011;63664;44.868;40.600;2023-05-29T10:38:41;6.65;;;4.82;;
75087;SDS011;63664;44.868;40.600;2023-05-29T10:49:16;7.82;;;4.53;;
75087;SDS011;63664;44.868;40.600;2023-05-29T10:51:44;8.50;;;4.45;;
75087;SDS011;63664;44.868;40.600;2023-05-29T10:54:21;7.97;;;4.53;;
75087;SDS011;63664;44.868;40.600;2023-05-29T10:56:57;7.10;;;4.28;;
75087;SDS011;63664;44.868;40.600;2023-05-29T10:59:29;8.68;;;5.07;;
75087;SDS011;63664;44.868;40.600;2023-05-29T11:02:07;10.98;;;4.82;;
75087;SDS011;63664;44.868;40.600;2023-05-29T11:04:38;7.50;;;4.57;;
75087;SDS011;63664;44.868;40.600;2023-05-29T11:07:07;9.10;;;4.30;;
75087;SDS011;63664;44.868;40.600;2023-05-29T11:10:10;10.90;;;4.80;;
75087;SDS011;63664;44.868;40.600;2023-05-29T11:12:57;7.25;;;4.18;;
75087;SDS011;63664;44.868;40.600;2023-05-29T11:15:26;6.82;;;4.50;;
75087;SDS011;63664;44.868;40.600;2023-05-29T11:17:52;6.63;;;3.80;;
75087;SDS011;63664;44.868;40.600;2023-05-29T11:20:53;7.10;;;4.18;;
75087;SDS011;63664;44.868;40.600;2023-05-29T11:23:29;6.38;;;4.30;;
75087;SDS011;63664;44.868;40.600;2023-05-29T11:25:59;8.10;;;4.13;;
75087;SDS011;63664;44.868;40.600;2023-05-29T11:28:33;7.07;;;3.85;;
75087;SDS011;63664;44.868;40.600;2023-05-29T11:31:07;6.10;;;3.85;;
75087;SDS011;63664;44.868;40.600;2023-05-29T11:33:39;5.78;;;4.05;;
75087;SDS011;63664;44.868;40.600;2023-05-29T11:36:18;6.70;;;3.58;;
75087;SDS011;63664;44.868;40.600;2023-05-29T11:38:48;7.25;;;3.85;;
75087;SDS011;63664;44.868;40.600;2023-05-29T11:41:20;6.72;;;4.10;;
75087;SDS011;63664;44.868;40.600;2023-05-29T11:44:01;7.68;;;4.45;;
75087;SDS011;63664;44.868;40.600;2023-05-29T11:46:31;7.55;;;4.18;;
75087;SDS011;63664;44.868;40.600;2023-05-29T11:49:00;10.80;;;5.15;;
75087;SDS011;63664;44.868;40.600;2023-05-29T11:51:27;8.75;;;4.43;;
75087;SDS011;63664;44.868;40.600;2023-05-29T11:53:56;7.13;;;4.00;;
75087;SDS011;63664;44.868;40.600;2023-05-29T11:56:29;9.05;;;4.30;;
75087;SDS011;63664;44.868;40.600;2023-05-29T11:58:58;6.53;;;3.55;;
75087;SDS011;63664;44.868;40.600;2023-05-29T12:01:25;6.65;;;4.00;;
75087;SDS011;63664;44.868;40.600;2023-05-29T12:03:54;6.13;;;3.40;;
75087;SDS011;63664;44.868;40.600;2023-05-29T12:06:32;12.05;;;3.67;;
75087;SDS011;63664;44.868;40.600;2023-05-29T12:09:06;9.10;;;3.20;;
75087;SDS011;63664;44.868;40.600;2023-05-29T12:11:33;6.05;;;3.38;;
75087;SDS011;63664;44.868;40.600;2023-05-29T12:14:05;6.60;;;3.70;;
75087;SDS011;63664;44.868;40.600;2023-05-29T12:16:34;6.47;;;3.88;;
75087;SDS011;63664;44.868;40.600;2023-05-29T12:19:03;8.70;;;3.30;;
75087;SDS011;63664;44.868;40.600;2023-05-29T12:21:32;6.97;;;3.80;;
75087;SDS011;63664;44.868;40.600;2023-05-29T12:23:58;5.05;;;3.13;;
75087;SDS011;63664;44.868;40.600;2023-05-29T12:26:28;5.45;;;3.38;;
75087;SDS011;63664;44.868;40.600;2023-05-29T12:28:56;6.13;;;3.67;;
75087;SDS011;63664;44.868;40.600;2023-05-29T12:31:28;5.40;;;3.60;;
75087;SDS011;63664;44.868;40.600;2023-05-29T12:34:01;7.30;;;3.50;;
75087;SDS011;63664;44.868;40.600;2023-05-29T12:36:41;5.72;;;3.38;;
75087;SDS011;63664;44.868;40.600;2023-05-29T12:39:10;6.50;;;3.60;;
75087;SDS011;63664;44.868;40.600;2023-05-29T12:41:39;5.68;;;3.65;;
75087;SDS011;63664;44.868;40.600;2023-05-29T12:44:09;7.03;;;3.63;;
75087;SDS011;63664;44.868;40.600;2023-05-29T12:46:44;7.47;;;3.47;;
75087;SDS011;63664;44.868;40.600;2023-05-29T12:49:16;6.28;;;3.63;;
75087;SDS011;63664;44.868;40.600;2023-05-29T12:51:51;5.93;;;3.63;;
75087;SDS011;63664;44.868;40.600;2023-05-29T12:54:18;6.75;;;3.58;;
75087;SDS011;63664;44.868;40.600;2023-05-29T12:56:44;5.20;;;3.50;;
75087;SDS011;63664;44.868;40.600;2023-05-29T12:59:11;5.13;;;3.60;;
75087;SDS011;63664;44.868;40.600;2023-05-29T13:01:38;5.43;;;3.22;;
75087;SDS011;63664;44.868;40.600;2023-05-29T13:04:08;7.43;;;3.40;;
75087;SDS011;63664;44.868;40.600;2023-05-29T13:06:36;9.45;;;3.40;;
75087;SDS011;63664;44.868;40.600;2023-05-29T13:09:04;6.80;;;3.45;;
75087;SDS011;63664;44.868;40.600;2023-05-29T13:11:34;5.40;;;3.60;;
75087;SDS011;63664;44.868;40.600;2023-05-29T13:14:00;6.85;;;3.60;;
75087;SDS011;63664;44.868;40.600;2023-05-29T13:16:27;7.07;;;3.47;;
75087;SDS011;63664;44.868;40.600;2023-05-29T13:18:53;5.90;;;3.40;;
75087;SDS011;63664;44.868;40.600;2023-05-29T13:21:26;7.78;;;3.70;;
75087;SDS011;63664;44.868;40.600;2023-05-29T13:23:58;5.60;;;3.33;;
75087;SDS011;63664;44.868;40.600;2023-05-29T13:26:24;7.32;;;3.65;;
75087;SDS011;63664;44.868;40.600;2023-05-29T13:28:51;10.95;;;3.85;;
75087;SDS011;63664;44.868;40.600;2023-05-29T13:31:20;5.93;;;3.85;;
75087;SDS011;63664;44.868;40.600;2023-05-29T13:33:46;5.70;;;3.25;;
75087;SDS011;63664;44.868;40.600;2023-05-29T13:36:18;6.32;;;3.47;;
75087;SDS011;63664;44.868;40.600;2023-05-29T13:38:50;5.70;;;3.47;;
75087;SDS011;63664;44.868;40.600;2023-05-29T13:41:16;8.50;;;3.72;;
75087;SDS011;63664;44.868;40.600;2023-05-29T13:43:50;6.30;;;3.53;;
75087;SDS011;63664;44.868;40.600;2023-05-29T13:46:19;6.38;;;3.10;;
75087;SDS011;63664;44.868;40.600;2023-05-29T13:48:50;6.95;;;3.60;;
75087;SDS011;63664;44.868;40.600;2023-05-29T13:51:16;5.38;;;3.20;;
75087;SDS011;63664;44.868;40.600;2023-05-29T13:53:43;6.63;;;3.30;;
75087;SDS011;63664;44.868;40.600;2023-05-29T13:56:12;6.75;;;3.35;;
75087;SDS011;63664;44.868;40.600;2023-05-29T13:58:41;7.50;;;3.33;;
75087;SDS011;63664;44.868;40.600;2023-05-29T14:01:07;8.90;;;3.65;;
75087;SDS011;63664;44.868;40.600;2023-05-29T15:55:18;6.80;;;3.13;;
75087;SDS011;63664;44.868;40.600;2023-05-29T15:57:45;5.53;;;2.85;;
75087;SDS011;63664;44.868;40.600;2023-05-29T16:00:14;5.90;;;3.60;;
75087;SDS011;63664;44.868;40.600;2023-05-29T16:02:44;6.40;;;3.67;;
75087;SDS011;63664;44.868;40.600;2023-05-29T16:05:10;8.10;;;3.53;;
75087;SDS011;63664;44.868;40.600;2023-05-29T16:07:37;8.90;;;3.50;;
75087;SDS011;63664;44.868;40.600;2023-05-29T16:10:14;6.95;;;3.83;;
75087;SDS011;63664;44.868;40.600;2023-05-29T16:12:42;9.10;;;3.42;;
75087;SDS011;63664;44.868;40.600;2023-05-29T16:15:10;8.45;;;3.67;;
75087;SDS011;63664;44.868;40.600;2023-05-29T16:17:40;6.90;;;3.35;;
75087;SDS011;63664;44.868;40.600;2023-05-29T16:20:08;6.15;;;3.67;;
75087;SDS011;63664;44.868;40.600;2023-05-29T16:25:09;4.90;;;3.63;;
75087;SDS011;63664;44.868;40.600;2023-05-29T16:27:38;9.10;;;3.53;;
75087;SDS011;63664;44.868;40.600;2023-05-29T16:32:34;5.72;;;3.83;;
75087;SDS011;63664;44.868;40.600;2023-05-29T16:35:03;5.97;;;3.80;;
75087;SDS011;63664;44.868;40.600;2023-05-29T16:37:32;6.82;;;4.20;;
75087;SDS011;63664;44.868;40.600;2023-05-29T16:40:01;6.90;;;3.67;;
75087;SDS011;63664;44.868;40.600;2023-05-29T16:42:31;6.03;;;3.63;;
75087;SDS011;63664;44.868;40.600;2023-05-29T16:45:02;8.45;;;3.90;;
75087;SDS011;63664;44.868;40.600;2023-05-29T16:47:33;5.72;;;3.65;;
75087;SDS011;63664;44.868;40.600;2023-05-29T16:50:00;11.15;;;3.97;;
75087;SDS011;63664;44.868;40.600;2023-05-29T16:52:27;8.43;;;4.20;;
75087;SDS011;63664;44.868;40.600;2023-05-29T16:55:00;7.60;;;3.70;;
75087;SDS011;63664;44.868;40.600;2023-05-29T16:57:30;9.52;;;5.20;;
75087;SDS011;63664;44.868;40.600;2023-05-29T17:00:02;7.28;;;4.68;;
75087;SDS011;63664;44.868;40.600;2023-05-29T17:02:31;9.77;;;5.60;;
75087;SDS011;63664;44.868;40.600;2023-05-29T17:05:00;11.52;;;6.57;;
75087;SDS011;63664;44.868;40.600;2023-05-29T17:07:29;14.60;;;7.15;;
75087;SDS011;63664;44.868;40.600;2023-05-29T17:09:57;17.98;;;9.07;;
75087;SDS011;63664;44.868;40.600;2023-05-29T17:12:23;19.35;;;11.25;;
75087;SDS011;63664;44.868;40.600;2023-05-29T17:14:50;18.83;;;10.05;;
75087;SDS011;63664;44.868;40.600;2023-05-29T17:17:16;19.42;;;11.25;;
75087;SDS011;63664;44.868;40.600;2023-05-29T17:19:42;19.58;;;10.40;;
75087;SDS011;63664;44.868;40.600;2023-05-29T17:22:09;17.30;;;9.27;;
75087;SDS011;63664;44.868;40.600;2023-05-29T17:24:38;17.42;;;9.48;;
75087;SDS011;63664;44.868;40.600;2023-05-29T17:27:07;15.63;;;8.20;;
75087;SDS011;63664;44.868;40.600;2023-05-29T17:29:36;14.70;;;8.57;;
75087;SDS011;63664;44.868;40.600;2023-05-29T17:32:02;15.32;;;8.30;;
75087;SDS011;63664;44.868;40.600;2023-05-29T17:34:28;16.48;;;9.68;;
75087;SDS011;63664;44.868;40.600;2023-05-29T17:36:57;15.30;;;8.55;;
75087;SDS011;63664;44.868;40.600;2023-05-29T17:39:26;14.95;;;7.03;;
75087;SDS011;63664;44.868;40.600;2023-05-29T17:41:57;15.35;;;7.45;;
75087;SDS011;63664;44.868;40.600;2023-05-29T17:44:26;13.60;;;6.47;;
75087;SDS011;63664;44.868;40.600;2023-05-29T17:46:55;8.43;;;5.82;;
75087;SDS011;63664;44.868;40.600;2023-05-29T17:49:22;12.35;;;5.20;;
75087;SDS011;63664;44.868;40.600;2023-05-29T17:51:51;13.18;;;5.40;;
75087;SDS011;63664;44.868;40.600;2023-05-29T17:54:17;16.67;;;5.72;;
75087;SDS011;63664;44.868;40.600;2023-05-29T17:56:47;8.80;;;4.60;;
75087;SDS011;63664;44.868;40.600;2023-05-29T17:59:13;10.32;;;4.93;;
75087;SDS011;63664;44.868;40.600;2023-05-29T18:01:39;9.63;;;5.20;;
75087;SDS011;63664;44.868;40.600;2023-05-29T18:04:08;6.57;;;4.32;;
75087;SDS011;63664;44.868;40.600;2023-05-29T18:06:35;11.02;;;4.45;;
75087;SDS011;63664;44.868;40.600;2023-05-29T18:09:01;7.72;;;4.60;;
75087;SDS011;63664;44.868;40.600;2023-05-29T18:11:28;8.90;;;4.28;;
75087;SDS011;63664;44.868;40.600;2023-05-29T18:13:57;9.75;;;4.28;;
75087;SDS011;63664;44.868;40.600;2023-05-29T18:16:23;14.07;;;4.45;;
75087;SDS011;63664;44.868;40.600;2023-05-29T18:18:49;5.15;;;3.55;;
75087;SDS011;63664;44.868;40.600;2023-05-29T18:21:23;9.07;;;4.13;;
75087;SDS011;63664;44.868;40.600;2023-05-29T18:23:52;6.32;;;3.70;;
75087;SDS011;63664;44.868;40.600;2023-05-29T18:26:19;8.18;;;4.32;;
75087;SDS011;63664;44.868;40.600;2023-05-29T18:28:47;6.45;;;3.40;;
75087;SDS011;63664;44.868;40.600;2023-05-29T18:31:13;7.68;;;3.55;;
75087;SDS011;63664;44.868;40.600;2023-05-29T18:33:44;9.60;;;4.10;;
75087;SDS011;63664;44.868;40.600;2023-05-29T18:36:14;10.00;;;4.13;;
75087;SDS011;63664;44.868;40.600;2023-05-29T18:38:44;8.18;;;3.28;;
75087;SDS011;63664;44.868;40.600;2023-05-29T18:41:13;10.45;;;3.40;;
75087;SDS011;63664;44.868;40.600;2023-05-29T18:43:39;7.40;;;3.72;;
75087;SDS011;63664;44.868;40.600;2023-05-29T18:46:06;7.30;;;3.50;;
75087;SDS011;63664;44.868;40.600;2023-05-29T18:48:39;6.28;;;3.72;;
75087;SDS011;63664;44.868;40.600;2023-05-29T18:51:05;8.00;;;4.13;;
75087;SDS011;63664;44.868;40.600;2023-05-29T18:53:37;7.68;;;3.55;;
75087;SDS011;63664;44.868;40.600;2023-05-29T18:56:09;5.88;;;3.85;;
75087;SDS011;63664;44.868;40.600;2023-05-29T18:58:36;10.20;;;3.72;;
75087;SDS011;63664;44.868;40.600;2023-05-29T19:01:02;4.85;;;3.60;;
75087;SDS011;63664;44.868;40.600;2023-05-29T19:03:30;9.52;;;3.75;;
75087;SDS011;63664;44.868;40.600;2023-05-29T19:06:02;10.63;;;3.70;;
75087;SDS011;63664;44.868;40.600;2023-05-29T19:08:31;9.70;;;3.53;;
75087;SDS011;63664;44.868;40.600;2023-05-29T19:11:05;8.18;;;3.63;;
75087;SDS011;63664;44.868;40.600;2023-05-29T19:13:37;8.05;;;3.67;;
75087;SDS011;63664;44.868;40.600;2023-05-29T19:16:03;6.50;;;2.95;;
75087;SDS011;63664;44.868;40.600;2023-05-29T19:18:30;11.40;;;3.83;;
75087;SDS011;63664;44.868;40.600;2023-05-29T19:20:56;5.82;;;3.10;;
75087;SDS011;63664;44.868;40.600;2023-05-29T19:23:23;6.45;;;4.07;;
75087;SDS011;63664;44.868;40.600;2023-05-29T19:25:49;9.38;;;3.90;;
75087;SDS011;63664;44.868;40.600;2023-05-29T19:28:21;9.77;;;3.50;;
75087;SDS011;63664;44.868;40.600;2023-05-29T19:30:47;8.90;;;4.25;;
75087;SDS011;63664;44.868;40.600;2023-05-29T19:33:13;6.30;;;3.70;;
75087;SDS011;63664;44.868;40.600;2023-05-29T19:35:40;5.18;;;3.60;;
75087;SDS011;63664;44.868;40.600;2023-05-29T19:38:06;6.88;;;3.20;;
75087;SDS011;63664;44.868;40.600;2023-05-29T19:40:35;9.93;;;3.92;;
75087;SDS011;63664;44.868;40.600;2023-05-29T19:43:03;10.93;;;3.45;;
75087;SDS011;63664;44.868;40.600;2023-05-29T19:45:31;9.52;;;3.92;;
75087;SDS011;63664;44.868;40.600;2023-05-29T19:47:59;6.43;;;3.38;;